sensor_id;sensor_type;location;lat;lon;timestamp;temperature;humidity
68378;DHT22;55322;48.146;11.516;2023-07-16T00:01:00;21.54;78.97
68378;DHT22;55322;48.146;11.516;2023-07-16T00:03:26;21.36;79.83
68378;DHT22;55322;48.146;11.516;2023-07-16T00:05:51;21.33;80.33
68378;DHT22;55322;48.146;11.516;2023-07-16T00:08:17;21.20;80.55
68378;DHT22;55322;48.146;11.516;2023-07-16T00:10:42;21.25;80.50
68378;DHT22;55322;48.146;11.516;2023-07-16T00:13:08;21.20;80.42
68378;DHT22;55322;48.146;11.516;2023-07-16T00:15:33;21.13;80.92
68378;DHT22;55322;48.146;11.516;2023-07-16T00:17:59;21.06;81.55
68378;DHT22;55322;48.146;11.516;2023-07-16T00:20:24;20.98;81.93
68378;DHT22;55322;48.146;11.516;2023-07-16T00:22:50;20.92;82.31
68378;DHT22;55322;48.146;11.516;2023-07-16T00:25:16;20.85;82.54
68378;DHT22;55322;48.146;11.516;2023-07-16T00:27:41;20.69;82.85
68378;DHT22;55322;48.146;11.516;2023-07-16T00:30:07;20.58;83.07
68378;DHT22;55322;48.146;11.516;2023-07-16T00:32:33;20.69;83.59
68378;DHT22;55322;48.146;11.516;2023-07-16T00:34:58;20.72;83.42
68378;DHT22;55322;48.146;11.516;2023-07-16T00:37:24;20.79;83.18
68378;DHT22;55322;48.146;11.516;2023-07-16T00:39:49;20.75;83.04
68378;DHT22;55322;48.146;11.516;2023-07-16T00:42:15;20.79;83.56
68378;DHT22;55322;48.146;11.516;2023-07-16T00:44:40;20.69;83.34
68378;DHT22;55322;48.146;11.516;2023-07-16T00:47:05;20.65;83.84
68378;DHT22;55322;48.146;11.516;2023-07-16T00:49:31;20.67;83.18
68378;DHT22;55322;48.146;11.516;2023-07-16T00:51:58;20.67;83.32
68378;DHT22;55322;48.146;11.516;2023-07-16T00:54:23;20.65;83.72
68378;DHT22;55322;48.146;11.516;2023-07-16T00:56:49;20.69;84.00
68378;DHT22;55322;48.146;11.516;2023-07-16T00:59:14;20.79;84.14
68378;DHT22;55322;48.146;11.516;2023-07-16T01:01:40;20.75;83.64
68378;DHT22;55322;48.146;11.516;2023-07-16T01:04:05;20.76;83.99
68378;DHT22;55322;48.146;11.516;2023-07-16T01:06:37;20.76;84.03
68378;DHT22;55322;48.146;11.516;2023-07-16T01:09:08;20.75;83.74
68378;DHT22;55322;48.146;11.516;2023-07-16T01:11:34;20.75;84.19
68378;DHT22;55322;48.146;11.516;2023-07-16T01:14:01;20.78;84.22
68378;DHT22;55322;48.146;11.516;2023-07-16T01:16:27;20.71;84.53
68378;DHT22;55322;48.146;11.516;2023-07-16T01:18:52;20.67;84.86
68378;DHT22;55322;48.146;11.516;2023-07-16T01:21:20;20.65;84.56
68378;DHT22;55322;48.146;11.516;2023-07-16T01:24:24;20.63;84.78
68378;DHT22;55322;48.146;11.516;2023-07-16T01:29:41;20.56;84.89
68378;DHT22;55322;48.146;11.516;2023-07-16T01:32:11;20.48;85.19
68378;DHT22;55322;48.146;11.516;2023-07-16T01:34:38;20.37;85.57
68378;DHT22;55322;48.146;11.516;2023-07-16T01:37:04;20.45;85.71
68378;DHT22;55322;48.146;11.516;2023-07-16T01:39:30;20.43;86.03
68378;DHT22;55322;48.146;11.516;2023-07-16T01:41:57;20.37;86.26
68378;DHT22;55322;48.146;11.516;2023-07-16T01:44:23;20.38;86.06
68378;DHT22;55322;48.146;11.516;2023-07-16T01:46:59;20.43;85.54
68378;DHT22;55322;48.146;11.516;2023-07-16T01:49:28;20.38;86.28
68378;DHT22;55322;48.146;11.516;2023-07-16T01:51:54;20.23;86.24
68378;DHT22;55322;48.146;11.516;2023-07-16T01:54:20;20.17;86.97
68378;DHT22;55322;48.146;11.516;2023-07-16T01:56:45;20.16;87.15
68378;DHT22;55322;48.146;11.516;2023-07-16T01:59:10;20.27;87.20
68378;DHT22;55322;48.146;11.516;2023-07-16T02:01:35;20.21;87.17
68378;DHT22;55322;48.146;11.516;2023-07-16T02:04:01;20.33;87.66
68378;DHT22;55322;48.146;11.516;2023-07-16T02:06:26;20.38;87.25
68378;DHT22;55322;48.146;11.516;2023-07-16T02:08:51;20.45;86.62
68378;DHT22;55322;48.146;11.516;2023-07-16T02:11:17;20.44;86.37
68378;DHT22;55322;48.146;11.516;2023-07-16T02:13:42;20.38;86.50
68378;DHT22;55322;48.146;11.516;2023-07-16T02:16:07;20.43;86.94
68378;DHT22;55322;48.146;11.516;2023-07-16T02:18:33;20.44;86.96
68378;DHT22;55322;48.146;11.516;2023-07-16T02:20:58;20.44;86.55
68378;DHT22;55322;48.146;11.516;2023-07-16T02:23:23;20.55;87.04
68378;DHT22;55322;48.146;11.516;2023-07-16T02:25:49;20.49;86.71
68378;DHT22;55322;48.146;11.516;2023-07-16T02:28:14;20.49;86.84
68378;DHT22;55322;48.146;11.516;2023-07-16T02:30:40;20.51;86.30
68378;DHT22;55322;48.146;11.516;2023-07-16T02:33:06;20.55;86.81
68378;DHT22;55322;48.146;11.516;2023-07-16T02:35:31;20.59;86.59
68378;DHT22;55322;48.146;11.516;2023-07-16T02:37:56;20.56;86.60
68378;DHT22;55322;48.146;11.516;2023-07-16T02:40:22;20.58;87.18
68378;DHT22;55322;48.146;11.516;2023-07-16T02:42:47;20.65;87.05
68378;DHT22;55322;48.146;11.516;2023-07-16T02:45:13;20.64;87.16
68378;DHT22;55322;48.146;11.516;2023-07-16T02:47:38;20.69;86.34
68378;DHT22;55322;48.146;11.516;2023-07-16T02:50:03;20.69;86.31
68378;DHT22;55322;48.146;11.516;2023-07-16T02:52:29;20.72;86.39
68378;DHT22;55322;48.146;11.516;2023-07-16T02:54:54;20.71;86.36
68378;DHT22;55322;48.146;11.516;2023-07-16T02:57:21;20.68;85.78
68378;DHT22;55322;48.146;11.516;2023-07-16T02:59:46;20.64;86.04
68378;DHT22;55322;48.146;11.516;2023-07-16T03:02:12;20.68;86.15
68378;DHT22;55322;48.146;11.516;2023-07-16T03:04:37;20.71;85.75
68378;DHT22;55322;48.146;11.516;2023-07-16T03:07:03;20.69;86.28
68378;DHT22;55322;48.146;11.516;2023-07-16T03:09:28;20.71;85.68
68378;DHT22;55322;48.146;11.516;2023-07-16T03:11:53;20.72;85.83
68378;DHT22;55322;48.146;11.516;2023-07-16T03:14:19;20.68;85.35
68378;DHT22;55322;48.146;11.516;2023-07-16T03:16:44;20.65;85.89
68378;DHT22;55322;48.146;11.516;2023-07-16T03:19:09;20.59;85.96
68378;DHT22;55322;48.146;11.516;2023-07-16T03:21:35;20.64;86.37
68378;DHT22;55322;48.146;11.516;2023-07-16T03:24:00;20.58;85.72
68378;DHT22;55322;48.146;11.516;2023-07-16T03:26:25;20.61;86.02
68378;DHT22;55322;48.146;11.516;2023-07-16T03:28:50;20.61;86.12
68378;DHT22;55322;48.146;11.516;2023-07-16T03:31:16;20.64;86.02
68378;DHT22;55322;48.146;11.516;2023-07-16T03:33:41;20.72;85.81
68378;DHT22;55322;48.146;11.516;2023-07-16T03:36:06;20.71;85.17
68378;DHT22;55322;48.146;11.516;2023-07-16T03:38:32;20.65;85.28
68378;DHT22;55322;48.146;11.516;2023-07-16T03:40:57;20.68;84.83
68378;DHT22;55322;48.146;11.516;2023-07-16T03:43:22;20.65;84.77
68378;DHT22;55322;48.146;11.516;2023-07-16T03:45:48;20.52;84.62
68378;DHT22;55322;48.146;11.516;2023-07-16T03:48:14;20.49;84.67
68378;DHT22;55322;48.146;11.516;2023-07-16T03:50:39;20.49;84.86
68378;DHT22;55322;48.146;11.516;2023-07-16T03:53:04;20.54;84.38
68378;DHT22;55322;48.146;11.516;2023-07-16T03:55:30;20.55;83.86
68378;DHT22;55322;48.146;11.516;2023-07-16T03:57:55;20.52;84.42
68378;DHT22;55322;48.146;11.516;2023-07-16T04:00:20;20.48;83.86
68378;DHT22;55322;48.146;11.516;2023-07-16T04:02:46;20.43;84.38
68378;DHT22;55322;48.146;11.516;2023-07-16T04:05:11;20.44;84.54
68378;DHT22;55322;48.146;11.516;2023-07-16T04:07:36;20.43;84.83
68378;DHT22;55322;48.146;11.516;2023-07-16T04:10:02;20.48;85.55
68378;DHT22;55322;48.146;11.516;2023-07-16T04:12:27;20.55;85.76
68378;DHT22;55322;48.146;11.516;2023-07-16T04:14:58;20.52;86.87
68378;DHT22;55322;48.146;11.516;2023-07-16T04:17:24;20.47;89.24
68378;DHT22;55322;48.146;11.516;2023-07-16T04:19:49;20.25;88.73
68378;DHT22;55322;48.146;11.516;2023-07-16T04:22:14;20.04;90.84
68378;DHT22;55322;48.146;11.516;2023-07-16T04:24:40;19.87;91.48
68378;DHT22;55322;48.146;11.516;2023-07-16T04:27:05;19.65;91.75
68378;DHT22;55322;48.146;11.516;2023-07-16T04:29:30;19.62;92.24
68378;DHT22;55322;48.146;11.516;2023-07-16T04:31:56;19.45;92.01
68378;DHT22;55322;48.146;11.516;2023-07-16T04:34:21;19.38;92.66
68378;DHT22;55322;48.146;11.516;2023-07-16T04:36:47;19.39;93.29
68378;DHT22;55322;48.146;11.516;2023-07-16T04:39:12;19.43;93.04
68378;DHT22;55322;48.146;11.516;2023-07-16T04:41:37;19.30;93.50
68378;DHT22;55322;48.146;11.516;2023-07-16T04:44:04;19.19;93.72
68378;DHT22;55322;48.146;11.516;2023-07-16T04:46:29;19.14;94.27
68378;DHT22;55322;48.146;11.516;2023-07-16T04:48:55;19.12;94.32
68378;DHT22;55322;48.146;11.516;2023-07-16T04:51:20;19.08;94.20
68378;DHT22;55322;48.146;11.516;2023-07-16T04:53:46;19.01;94.53
68378;DHT22;55322;48.146;11.516;2023-07-16T04:56:14;19.11;93.58
68378;DHT22;55322;48.146;11.516;2023-07-16T04:58:40;19.12;92.72
68378;DHT22;55322;48.146;11.516;2023-07-16T05:01:06;19.11;92.75
68378;DHT22;55322;48.146;11.516;2023-07-16T05:03:32;19.23;93.25
68378;DHT22;55322;48.146;11.516;2023-07-16T05:05:57;19.28;92.17
68378;DHT22;55322;48.146;11.516;2023-07-16T05:08:22;19.32;92.35
68378;DHT22;55322;48.146;11.516;2023-07-16T05:10:48;19.39;92.83
68378;DHT22;55322;48.146;11.516;2023-07-16T05:13:13;19.42;93.24
68378;DHT22;55322;48.146;11.516;2023-07-16T05:15:40;19.43;92.94
68378;DHT22;55322;48.146;11.516;2023-07-16T05:18:05;19.45;92.08
68378;DHT22;55322;48.146;11.516;2023-07-16T05:20:31;19.45;91.75
68378;DHT22;55322;48.146;11.516;2023-07-16T05:22:56;19.55;92.14
68378;DHT22;55322;48.146;11.516;2023-07-16T05:25:21;19.55;92.54
68378;DHT22;55322;48.146;11.516;2023-07-16T05:27:47;19.58;93.03
68378;DHT22;55322;48.146;11.516;2023-07-16T05:30:12;19.60;93.18
68378;DHT22;55322;48.146;11.516;2023-07-16T05:32:38;19.55;92.69
68378;DHT22;55322;48.146;11.516;2023-07-16T05:35:04;19.67;92.64
68378;DHT22;55322;48.146;11.516;2023-07-16T05:37:29;19.67;92.53
68378;DHT22;55322;48.146;11.516;2023-07-16T05:39:54;19.69;92.79
68378;DHT22;55322;48.146;11.516;2023-07-16T05:42:20;19.67;92.30
68378;DHT22;55322;48.146;11.516;2023-07-16T05:44:47;19.62;92.34
68378;DHT22;55322;48.146;11.516;2023-07-16T05:47:13;19.59;92.14
68378;DHT22;55322;48.146;11.516;2023-07-16T05:49:38;19.66;92.39
68378;DHT22;55322;48.146;11.516;2023-07-16T05:52:04;19.76;92.72
68378;DHT22;55322;48.146;11.516;2023-07-16T05:54:29;19.86;93.25
68378;DHT22;55322;48.146;11.516;2023-07-16T05:56:55;19.96;92.78
68378;DHT22;55322;48.146;11.516;2023-07-16T05:59:20;20.04;92.59
68378;DHT22;55322;48.146;11.516;2023-07-16T06:01:46;20.04;92.86
68378;DHT22;55322;48.146;11.516;2023-07-16T06:04:11;19.97;91.81
68378;DHT22;55322;48.146;11.516;2023-07-16T06:06:36;20.09;92.38
68378;DHT22;55322;48.146;11.516;2023-07-16T06:09:02;20.20;93.27
68378;DHT22;55322;48.146;11.516;2023-07-16T06:11:27;20.25;92.11
68378;DHT22;55322;48.146;11.516;2023-07-16T06:13:53;20.34;92.65
68378;DHT22;55322;48.146;11.516;2023-07-16T06:16:20;20.35;91.97
68378;DHT22;55322;48.146;11.516;2023-07-16T06:18:45;20.43;92.79
68378;DHT22;55322;48.146;11.516;2023-07-16T06:21:10;20.45;91.96
68378;DHT22;55322;48.146;11.516;2023-07-16T06:23:36;20.41;92.44
68378;DHT22;55322;48.146;11.516;2023-07-16T06:26:01;20.49;90.23
68378;DHT22;55322;48.146;11.516;2023-07-16T06:28:26;20.55;91.18
68378;DHT22;55322;48.146;11.516;2023-07-16T06:30:52;20.55;91.24
68378;DHT22;55322;48.146;11.516;2023-07-16T06:33:18;20.43;91.35
68378;DHT22;55322;48.146;11.516;2023-07-16T06:35:45;20.35;92.17
68378;DHT22;55322;48.146;11.516;2023-07-16T06:38:11;20.18;92.84
68378;DHT22;55322;48.146;11.516;2023-07-16T06:40:36;20.20;93.09
68378;DHT22;55322;48.146;11.516;2023-07-16T06:43:02;20.17;93.09
68378;DHT22;55322;48.146;11.516;2023-07-16T06:45:27;20.27;93.20
68378;DHT22;55322;48.146;11.516;2023-07-16T06:47:52;20.58;92.71
68378;DHT22;55322;48.146;11.516;2023-07-16T06:50:18;20.65;90.29
68378;DHT22;55322;48.146;11.516;2023-07-16T06:52:43;20.84;88.80
68378;DHT22;55322;48.146;11.516;2023-07-16T06:55:08;21.35;88.66
68378;DHT22;55322;48.146;11.516;2023-07-16T06:57:34;21.32;89.32
68378;DHT22;55322;48.146;11.516;2023-07-16T07:00:00;21.22;89.45
68378;DHT22;55322;48.146;11.516;2023-07-16T07:02:25;21.19;88.14
68378;DHT22;55322;48.146;11.516;2023-07-16T07:04:50;21.05;88.70
68378;DHT22;55322;48.146;11.516;2023-07-16T07:07:16;21.02;90.61
68378;DHT22;55322;48.146;11.516;2023-07-16T07:09:42;20.98;91.17
68378;DHT22;55322;48.146;11.516;2023-07-16T07:12:07;21.03;87.37
68378;DHT22;55322;48.146;11.516;2023-07-16T07:14:33;21.03;89.07
68378;DHT22;55322;48.146;11.516;2023-07-16T07:16:58;20.95;89.57
68378;DHT22;55322;48.146;11.516;2023-07-16T07:19:24;20.85;89.99
68378;DHT22;55322;48.146;11.516;2023-07-16T07:21:49;20.78;90.20
68378;DHT22;55322;48.146;11.516;2023-07-16T07:24:14;20.76;90.83
68378;DHT22;55322;48.146;11.516;2023-07-16T07:26:40;20.72;91.61
68378;DHT22;55322;48.146;11.516;2023-07-16T07:29:05;20.67;91.51
68378;DHT22;55322;48.146;11.516;2023-07-16T07:31:30;20.56;90.06
68378;DHT22;55322;48.146;11.516;2023-07-16T07:33:56;20.55;90.77
68378;DHT22;55322;48.146;11.516;2023-07-16T07:36:22;20.58;90.46
68378;DHT22;55322;48.146;11.516;2023-07-16T07:38:48;20.63;89.30
68378;DHT22;55322;48.146;11.516;2023-07-16T07:41:13;20.56;88.46
68378;DHT22;55322;48.146;11.516;2023-07-16T07:43:38;20.43;88.48
68378;DHT22;55322;48.146;11.516;2023-07-16T07:46:04;20.24;89.29
68378;DHT22;55322;48.146;11.516;2023-07-16T07:48:30;20.27;90.67
68378;DHT22;55322;48.146;11.516;2023-07-16T07:50:56;20.25;89.66
68378;DHT22;55322;48.146;11.516;2023-07-16T07:53:21;20.31;89.43
68378;DHT22;55322;48.146;11.516;2023-07-16T07:55:47;20.24;89.81
68378;DHT22;55322;48.146;11.516;2023-07-16T07:58:12;20.25;88.71
68378;DHT22;55322;48.146;11.516;2023-07-16T08:00:38;20.21;88.34
68378;DHT22;55322;48.146;11.516;2023-07-16T08:03:04;20.17;88.78
68378;DHT22;55322;48.146;11.516;2023-07-16T08:05:29;20.24;88.10
68378;DHT22;55322;48.146;11.516;2023-07-16T08:07:55;20.34;89.07
68378;DHT22;55322;48.146;11.516;2023-07-16T08:10:21;20.43;88.39
68378;DHT22;55322;48.146;11.516;2023-07-16T08:12:46;20.40;87.41
68378;DHT22;55322;48.146;11.516;2023-07-16T08:15:12;20.48;88.23
68378;DHT22;55322;48.146;11.516;2023-07-16T08:17:44;20.58;88.48
68378;DHT22;55322;48.146;11.516;2023-07-16T08:20:10;20.67;87.79
68378;DHT22;55322;48.146;11.516;2023-07-16T08:22:35;20.75;87.31
68378;DHT22;55322;48.146;11.516;2023-07-16T08:25:01;20.89;85.33
68378;DHT22;55322;48.146;11.516;2023-07-16T08:27:26;20.99;84.56
68378;DHT22;55322;48.146;11.516;2023-07-16T08:29:51;21.16;82.68
68378;DHT22;55322;48.146;11.516;2023-07-16T08:32:17;21.18;80.73
68378;DHT22;55322;48.146;11.516;2023-07-16T08:34:42;21.15;82.36
68378;DHT22;55322;48.146;11.516;2023-07-16T08:37:07;21.18;82.61
68378;DHT22;55322;48.146;11.516;2023-07-16T08:39:33;21.32;80.76
68378;DHT22;55322;48.146;11.516;2023-07-16T08:41:58;21.38;78.52
68378;DHT22;55322;48.146;11.516;2023-07-16T08:44:24;21.61;79.09
68378;DHT22;55322;48.146;11.516;2023-07-16T08:46:50;21.71;76.31
68378;DHT22;55322;48.146;11.516;2023-07-16T08:49:18;21.89;74.82
68378;DHT22;55322;48.146;11.516;2023-07-16T08:51:46;22.17;74.00
68378;DHT22;55322;48.146;11.516;2023-07-16T08:54:12;22.17;74.23
68378;DHT22;55322;48.146;11.516;2023-07-16T08:56:41;22.32;73.15
68378;DHT22;55322;48.146;11.516;2023-07-16T08:59:06;22.34;74.34
68378;DHT22;55322;48.146;11.516;2023-07-16T09:01:32;22.34;72.21
68378;DHT22;55322;48.146;11.516;2023-07-16T09:03:57;22.52;75.15
68378;DHT22;55322;48.146;11.516;2023-07-16T09:06:23;22.38;72.34
68378;DHT22;55322;48.146;11.516;2023-07-16T09:08:48;22.55;73.79
68378;DHT22;55322;48.146;11.516;2023-07-16T09:11:13;22.58;76.62
68378;DHT22;55322;48.146;11.516;2023-07-16T09:13:44;22.91;75.13
68378;DHT22;55322;48.146;11.516;2023-07-16T09:16:09;22.92;71.44
68378;DHT22;55322;48.146;11.516;2023-07-16T09:18:35;23.06;71.51
68378;DHT22;55322;48.146;11.516;2023-07-16T09:21:00;23.03;75.05
68378;DHT22;55322;48.146;11.516;2023-07-16T09:23:31;23.13;71.88
68378;DHT22;55322;48.146;11.516;2023-07-16T09:25:57;23.36;74.86
68378;DHT22;55322;48.146;11.516;2023-07-16T09:28:23;23.61;74.09
68378;DHT22;55322;48.146;11.516;2023-07-16T09:30:49;23.66;73.59
68378;DHT22;55322;48.146;11.516;2023-07-16T09:33:17;23.73;73.30
68378;DHT22;55322;48.146;11.516;2023-07-16T09:35:43;23.85;72.08
68378;DHT22;55322;48.146;11.516;2023-07-16T09:38:09;23.59;66.22
68378;DHT22;55322;48.146;11.516;2023-07-16T09:40:36;23.74;63.98
68378;DHT22;55322;48.146;11.516;2023-07-16T09:43:03;23.69;63.62
68378;DHT22;55322;48.146;11.516;2023-07-16T09:45:28;23.64;64.02
68378;DHT22;55322;48.146;11.516;2023-07-16T09:47:54;23.81;66.15
68378;DHT22;55322;48.146;11.516;2023-07-16T09:50:20;24.22;65.49
68378;DHT22;55322;48.146;11.516;2023-07-16T09:52:47;24.76;69.15
68378;DHT22;55322;48.146;11.516;2023-07-16T09:55:13;25.15;67.17
68378;DHT22;55322;48.146;11.516;2023-07-16T09:57:42;25.24;64.04
68378;DHT22;55322;48.146;11.516;2023-07-16T10:00:12;25.37;66.26
68378;DHT22;55322;48.146;11.516;2023-07-16T10:02:39;25.50;66.21
68378;DHT22;55322;48.146;11.516;2023-07-16T10:05:15;25.44;65.91
68378;DHT22;55322;48.146;11.516;2023-07-16T10:07:42;25.06;60.78
68378;DHT22;55322;48.146;11.516;2023-07-16T10:10:11;25.39;65.49
68378;DHT22;55322;48.146;11.516;2023-07-16T10:12:37;25.75;61.31
68378;DHT22;55322;48.146;11.516;2023-07-16T10:15:04;25.98;58.12
68378;DHT22;55322;48.146;11.516;2023-07-16T10:17:31;25.80;57.46
68378;DHT22;55322;48.146;11.516;2023-07-16T10:19:58;25.26;57.61
68378;DHT22;55322;48.146;11.516;2023-07-16T10:22:40;25.73;62.16
68378;DHT22;55322;48.146;11.516;2023-07-16T10:27:46;26.22;62.89
68378;DHT22;55322;48.146;11.516;2023-07-16T10:30:11;25.82;59.08
68378;DHT22;55322;48.146;11.516;2023-07-16T10:32:37;26.17;61.81
68378;DHT22;55322;48.146;11.516;2023-07-16T10:35:04;26.22;65.53
68378;DHT22;55322;48.146;11.516;2023-07-16T10:37:30;26.31;62.33
68378;DHT22;55322;48.146;11.516;2023-07-16T10:39:58;26.65;61.96
68378;DHT22;55322;48.146;11.516;2023-07-16T10:42:25;26.17;60.88
68378;DHT22;55322;48.146;11.516;2023-07-16T10:44:59;25.95;62.08
68378;DHT22;55322;48.146;11.516;2023-07-16T10:47:32;25.66;62.00
68378;DHT22;55322;48.146;11.516;2023-07-16T10:49:58;25.33;63.48
68378;DHT22;55322;48.146;11.516;2023-07-16T10:52:24;25.81;61.95
68378;DHT22;55322;48.146;11.516;2023-07-16T10:54:50;25.82;62.98
68378;DHT22;55322;48.146;11.516;2023-07-16T10:57:17;26.44;61.72
68378;DHT22;55322;48.146;11.516;2023-07-16T10:59:44;26.53;62.35
68378;DHT22;55322;48.146;11.516;2023-07-16T11:02:12;26.08;61.55
68378;DHT22;55322;48.146;11.516;2023-07-16T11:04:37;26.01;61.80
68378;DHT22;55322;48.146;11.516;2023-07-16T11:07:07;25.88;62.54
68378;DHT22;55322;48.146;11.516;2023-07-16T11:09:34;25.33;61.46
68378;DHT22;55322;48.146;11.516;2023-07-16T11:12:09;25.23;63.81
68378;DHT22;55322;48.146;11.516;2023-07-16T11:14:36;24.92;63.26
68378;DHT22;55322;48.146;11.516;2023-07-16T11:17:08;24.87;61.88
68378;DHT22;55322;48.146;11.516;2023-07-16T11:19:35;24.54;64.15
68378;DHT22;55322;48.146;11.516;2023-07-16T11:22:02;24.32;64.87
68378;DHT22;55322;48.146;11.516;2023-07-16T11:24:27;24.47;64.76
68378;DHT22;55322;48.146;11.516;2023-07-16T11:26:56;24.92;62.82
68378;DHT22;55322;48.146;11.516;2023-07-16T11:29:24;25.10;62.56
68378;DHT22;55322;48.146;11.516;2023-07-16T11:31:51;25.74;65.65
68378;DHT22;55322;48.146;11.516;2023-07-16T11:34:19;25.74;62.27
68378;DHT22;55322;48.146;11.516;2023-07-16T11:36:44;25.82;62.26
68378;DHT22;55322;48.146;11.516;2023-07-16T11:39:13;25.69;62.61
68378;DHT22;55322;48.146;11.516;2023-07-16T11:41:38;25.90;61.61
68378;DHT22;55322;48.146;11.516;2023-07-16T11:44:04;25.74;63.96
68378;DHT22;55322;48.146;11.516;2023-07-16T11:46:33;25.30;64.89
68378;DHT22;55322;48.146;11.516;2023-07-16T11:49:02;25.30;67.22
68378;DHT22;55322;48.146;11.516;2023-07-16T11:51:29;25.61;66.61
68378;DHT22;55322;48.146;11.516;2023-07-16T11:53:56;25.56;62.53
68378;DHT22;55322;48.146;11.516;2023-07-16T11:56:21;25.69;66.45
68378;DHT22;55322;48.146;11.516;2023-07-16T11:58:47;25.24;65.25
68378;DHT22;55322;48.146;11.516;2023-07-16T12:01:12;25.06;63.54
68378;DHT22;55322;48.146;11.516;2023-07-16T12:03:39;24.95;65.30
68378;DHT22;55322;48.146;11.516;2023-07-16T12:06:05;25.02;68.00
68378;DHT22;55322;48.146;11.516;2023-07-16T12:08:30;25.15;67.69
68378;DHT22;55322;48.146;11.516;2023-07-16T12:10:55;25.49;66.45
68378;DHT22;55322;48.146;11.516;2023-07-16T12:13:21;25.74;64.78
68378;DHT22;55322;48.146;11.516;2023-07-16T12:15:46;26.17;63.10
68378;DHT22;55322;48.146;11.516;2023-07-16T12:18:11;25.75;64.48
68378;DHT22;55322;48.146;11.516;2023-07-16T12:20:37;25.64;64.31
68378;DHT22;55322;48.146;11.516;2023-07-16T12:23:02;25.49;64.34
68378;DHT22;55322;48.146;11.516;2023-07-16T12:25:28;25.37;64.74
68378;DHT22;55322;48.146;11.516;2023-07-16T12:27:53;25.09;65.05
68378;DHT22;55322;48.146;11.516;2023-07-16T12:30:19;24.99;64.84
68378;DHT22;55322;48.146;11.516;2023-07-16T12:32:44;24.95;67.01
68378;DHT22;55322;48.146;11.516;2023-07-16T12:35:09;24.86;66.71
68378;DHT22;55322;48.146;11.516;2023-07-16T12:37:34;24.77;65.27
68378;DHT22;55322;48.146;11.516;2023-07-16T12:40:00;24.86;66.40
68378;DHT22;55322;48.146;11.516;2023-07-16T12:42:25;24.68;67.71
68378;DHT22;55322;48.146;11.516;2023-07-16T12:44:50;24.62;67.71
68378;DHT22;55322;48.146;11.516;2023-07-16T12:47:16;24.65;69.77
68378;DHT22;55322;48.146;11.516;2023-07-16T12:49:41;24.59;70.07
68378;DHT22;55322;48.146;11.516;2023-07-16T12:52:07;24.47;70.29
68378;DHT22;55322;48.146;11.516;2023-07-16T12:54:32;24.31;69.32
68378;DHT22;55322;48.146;11.516;2023-07-16T12:56:58;24.26;70.87
68378;DHT22;55322;48.146;11.516;2023-07-16T12:59:23;24.48;69.36
68378;DHT22;55322;48.146;11.516;2023-07-16T13:01:49;24.56;69.37
68378;DHT22;55322;48.146;11.516;2023-07-16T13:04:15;24.87;67.92
68378;DHT22;55322;48.146;11.516;2023-07-16T13:06:40;25.10;69.95
68378;DHT22;55322;48.146;11.516;2023-07-16T13:09:06;25.17;69.41
68378;DHT22;55322;48.146;11.516;2023-07-16T13:11:32;25.05;68.17
68378;DHT22;55322;48.146;11.516;2023-07-16T13:13:57;24.97;69.61
68378;DHT22;55322;48.146;11.516;2023-07-16T13:16:23;24.95;69.05
68378;DHT22;55322;48.146;11.516;2023-07-16T13:18:48;24.80;68.80
68378;DHT22;55322;48.146;11.516;2023-07-16T13:21:13;24.93;70.38
68378;DHT22;55322;48.146;11.516;2023-07-16T13:23:39;24.80;68.85
68378;DHT22;55322;48.146;11.516;2023-07-16T13:26:04;24.83;68.56
68378;DHT22;55322;48.146;11.516;2023-07-16T13:28:29;24.96;69.02
68378;DHT22;55322;48.146;11.516;2023-07-16T13:30:55;24.80;68.09
68378;DHT22;55322;48.146;11.516;2023-07-16T13:33:20;25.31;71.06
68378;DHT22;55322;48.146;11.516;2023-07-16T13:35:45;25.41;69.90
68378;DHT22;55322;48.146;11.516;2023-07-16T13:38:11;25.23;66.73
68378;DHT22;55322;48.146;11.516;2023-07-16T13:40:36;25.17;68.51
68378;DHT22;55322;48.146;11.516;2023-07-16T13:43:02;25.27;67.85
68378;DHT22;55322;48.146;11.516;2023-07-16T13:45:27;25.16;67.48
68378;DHT22;55322;48.146;11.516;2023-07-16T13:47:52;25.20;68.80
68378;DHT22;55322;48.146;11.516;2023-07-16T13:50:19;25.30;67.56
68378;DHT22;55322;48.146;11.516;2023-07-16T13:52:44;25.43;67.59
68378;DHT22;55322;48.146;11.516;2023-07-16T13:55:10;25.41;68.22
68378;DHT22;55322;48.146;11.516;2023-07-16T13:57:36;25.44;68.54
68378;DHT22;55322;48.146;11.516;2023-07-16T14:00:01;25.27;67.72
68378;DHT22;55322;48.146;11.516;2023-07-16T14:02:26;25.16;66.28
68378;DHT22;55322;48.146;11.516;2023-07-16T14:04:52;25.12;68.39
68378;DHT22;55322;48.146;11.516;2023-07-16T14:07:17;25.15;67.11
68378;DHT22;55322;48.146;11.516;2023-07-16T14:09:42;25.24;65.67
68378;DHT22;55322;48.146;11.516;2023-07-16T14:12:08;25.30;67.43
68378;DHT22;55322;48.146;11.516;2023-07-16T14:14:33;25.29;66.41
68378;DHT22;55322;48.146;11.516;2023-07-16T14:16:58;25.19;69.43
68378;DHT22;55322;48.146;11.516;2023-07-16T14:19:24;25.07;68.53
68378;DHT22;55322;48.146;11.516;2023-07-16T14:21:49;25.29;69.37
68378;DHT22;55322;48.146;11.516;2023-07-16T14:24:15;25.37;69.87
68378;DHT22;55322;48.146;11.516;2023-07-16T14:26:40;25.43;67.83
68378;DHT22;55322;48.146;11.516;2023-07-16T14:29:05;25.19;67.26
68378;DHT22;55322;48.146;11.516;2023-07-16T14:31:31;25.00;69.29
68378;DHT22;55322;48.146;11.516;2023-07-16T14:33:57;24.96;68.78
68378;DHT22;55322;48.146;11.516;2023-07-16T14:36:22;24.76;69.38
68378;DHT22;55322;48.146;11.516;2023-07-16T14:38:48;24.86;68.19
68378;DHT22;55322;48.146;11.516;2023-07-16T14:41:14;25.02;67.63
68378;DHT22;55322;48.146;11.516;2023-07-16T14:43:39;24.83;68.55
68378;DHT22;55322;48.146;11.516;2023-07-16T14:46:05;24.56;68.75
68378;DHT22;55322;48.146;11.516;2023-07-16T14:48:30;24.52;69.23
68378;DHT22;55322;48.146;11.516;2023-07-16T14:50:55;24.51;69.47
68378;DHT22;55322;48.146;11.516;2023-07-16T14:53:21;24.44;68.94
68378;DHT22;55322;48.146;11.516;2023-07-16T14:55:47;24.32;68.92
68378;DHT22;55322;48.146;11.516;2023-07-16T14:58:13;24.21;70.27
68378;DHT22;55322;48.146;11.516;2023-07-16T15:00:38;24.08;69.60
68378;DHT22;55322;48.146;11.516;2023-07-16T15:03:04;23.98;70.29
68378;DHT22;55322;48.146;11.516;2023-07-16T15:05:31;24.05;68.90
68378;DHT22;55322;48.146;11.516;2023-07-16T15:07:56;24.05;68.79
68378;DHT22;55322;48.146;11.516;2023-07-16T15:10:21;24.04;70.43
68378;DHT22;55322;48.146;11.516;2023-07-16T15:12:47;23.97;70.40